sensor_id;sensor_type;location;lat;lon;timestamp;P1;durP1;ratioP1;P2;durP2;ratioP2
13252;SDS011;6693;54.370;10.132;2023-10-13T00:00:16;7.70;;;1.50;;
13252;SDS011;6693;54.370;10.132;2023-10-13T00:01:25;8.73;;;2.00;;
13252;SDS011;6693;54.370;10.132;2023-10-13T00:02:29;8.65;;;1.88;;
13252;SDS011;6693;54.370;10.132;2023-10-13T00:03:30;6.55;;;1.98;;
13252;SDS011;6693;54.370;10.132;2023-10-13T00:04:36;6.20;;;1.52;;
13252;SDS011;6693;54.370;10.132;2023-10-13T00:05:37;6.18;;;1.45;;
13252;SDS011;6693;54.370;10.132;2023-10-13T00:06:41;8.48;;;1.77;;
13252;SDS011;6693;54.370;10.132;2023-10-13T00:07:43;6.30;;;1.33;;
13252;SDS011;6693;54.370;10.132;2023-10-13T00:08:46;5.00;;;1.52;;
13252;SDS011;6693;54.370;10.132;2023-10-13T00:09:47;5.68;;;1.70;;
13252;SDS011;6693;54.370;10.132;2023-10-13T00:10:50;4.38;;;1.45;;
13252;SDS011;6693;54.370;10.132;2023-10-13T00:11:51;6.80;;;1.60;;
13252;SDS011;6693;54.370;10.132;2023-10-13T00:12:56;5.65;;;1.73;;
13252;SDS011;6693;54.370;10.132;2023-10-13T00:14:06;5.43;;;1.63;;
13252;SDS011;6693;54.370;10.132;2023-10-13T00:15:09;6.85;;;2.20;;
13252;SDS011;6693;54.370;10.132;2023-10-13T00:16:14;5.88;;;1.67;;
13252;SDS011;6693;54.370;10.132;2023-10-13T00:17:21;4.97;;;1.95;;
13252;SDS011;6693;54.370;10.132;2023-10-13T00:18:25;6.00;;;1.75;;
13252;SDS011;6693;54.370;10.132;2023-10-13T00:19:27;6.95;;;2.08;;
13252;SDS011;6693;54.370;10.132;2023-10-13T00:20:40;7.03;;;2.35;;
13252;SDS011;6693;54.370;10.132;2023-10-13T00:21:41;8.93;;;2.33;;
13252;SDS011;6693;54.370;10.132;2023-10-13T00:22:44;8.30;;;2.10;;
13252;SDS011;6693;54.370;10.132;2023-10-13T00:23:45;7.18;;;2.58;;
13252;SDS011;6693;54.370;10.132;2023-10-13T00:24:55;6.65;;;2.13;;
13252;SDS011;6693;54.370;10.132;2023-10-13T00:25:59;11.43;;;2.55;;
13252;SDS011;6693;54.370;10.132;2023-10-13T00:27:03;6.18;;;1.50;;
13252;SDS011;6693;54.370;10.132;2023-10-13T00:28:06;7.55;;;2.95;;
13252;SDS011;6693;54.370;10.132;2023-10-13T00:29:10;7.22;;;2.00;;
13252;SDS011;6693;54.370;10.132;2023-10-13T00:30:16;9.07;;;2.38;;
13252;SDS011;6693;54.370;10.132;2023-10-13T00:31:33;6.93;;;1.50;;
13252;SDS011;6693;54.370;10.132;2023-10-13T00:32:36;6.05;;;2.08;;
13252;SDS011;6693;54.370;10.132;2023-10-13T00:33:40;8.88;;;1.40;;
13252;SDS011;6693;54.370;10.132;2023-10-13T00:34:41;7.75;;;2.10;;
13252;SDS011;6693;54.370;10.132;2023-10-13T00:35:47;10.73;;;3.90;;
13252;SDS011;6693;54.370;10.132;2023-10-13T00:36:51;10.52;;;3.40;;
13252;SDS011;6693;54.370;10.132;2023-10-13T00:38:07;11.32;;;3.25;;
13252;SDS011;6693;54.370;10.132;2023-10-13T00:39:12;8.40;;;3.15;;
13252;SDS011;6693;54.370;10.132;2023-10-13T00:40:16;7.65;;;3.25;;
13252;SDS011;6693;54.370;10.132;2023-10-13T00:41:41;9.23;;;3.63;;
13252;SDS011;6693;54.370;10.132;2023-10-13T00:42:53;7.57;;;3.13;;
13252;SDS011;6693;54.370;10.132;2023-10-13T00:44:06;10.38;;;2.88;;
13252;SDS011;6693;54.370;10.132;2023-10-13T00:45:08;6.63;;;2.33;;
13252;SDS011;6693;54.370;10.132;2023-10-13T00:46:16;5.50;;;1.50;;
13252;SDS011;6693;54.370;10.132;2023-10-13T00:47:20;7.07;;;1.88;;
13252;SDS011;6693;54.370;10.132;2023-10-13T00:48:37;7.32;;;2.40;;
13252;SDS011;6693;54.370;10.132;2023-10-13T00:49:51;5.22;;;1.25;;
13252;SDS011;6693;54.370;10.132;2023-10-13T00:51:00;6.50;;;2.08;;
13252;SDS011;6693;54.370;10.132;2023-10-13T00:52:03;6.00;;;2.20;;
13252;SDS011;6693;54.370;10.132;2023-10-13T00:53:06;9.50;;;2.15;;
13252;SDS011;6693;54.370;10.132;2023-10-13T00:54:07;6.88;;;4.55;;
13252;SDS011;6693;54.370;10.132;2023-10-13T00:55:11;6.57;;;2.20;;
13252;SDS011;6693;54.370;10.132;2023-10-13T00:56:13;8.05;;;2.08;;
13252;SDS011;6693;54.370;10.132;2023-10-13T00:57:22;8.38;;;2.03;;
13252;SDS011;6693;54.370;10.132;2023-10-13T00:58:26;8.80;;;2.13;;
13252;SDS011;6693;54.370;10.132;2023-10-13T00:59:29;7.30;;;2.10;;
13252;SDS011;6693;54.370;10.132;2023-10-13T01:00:36;7.75;;;1.83;;
13252;SDS011;6693;54.370;10.132;2023-10-13T01:01:47;7.95;;;2.53;;
13252;SDS011;6693;54.370;10.132;2023-10-13T01:02:54;7.53;;;2.78;;
13252;SDS011;6693;54.370;10.132;2023-10-13T01:04:06;8.50;;;1.95;;
13252;SDS011;6693;54.370;10.132;2023-10-13T01:05:08;8.88;;;2.67;;
13252;SDS011;6693;54.370;10.132;2023-10-13T01:06:12;11.13;;;2.85;;
13252;SDS011;6693;54.370;10.132;2023-10-13T01:07:14;6.97;;;2.00;;
13252;SDS011;6693;54.370;10.132;2023-10-13T01:08:17;9.05;;;2.67;;
13252;SDS011;6693;54.370;10.132;2023-10-13T01:09:23;9.73;;;2.25;;
13252;SDS011;6693;54.370;10.132;2023-10-13T01:10:25;8.77;;;2.17;;
13252;SDS011;6693;54.370;10.132;2023-10-13T01:11:32;6.00;;;2.15;;
13252;SDS011;6693;54.370;10.132;2023-10-13T01:12:35;7.68;;;1.70;;
13252;SDS011;6693;54.370;10.132;2023-10-13T01:13:35;8.25;;;2.13;;
13252;SDS011;6693;54.370;10.132;2023-10-13T01:14:37;10.30;;;1.90;;
13252;SDS011;6693;54.370;10.132;2023-10-13T01:15:40;7.18;;;2.35;;
13252;SDS011;6693;54.370;10.132;2023-10-13T01:16:41;8.18;;;2.22;;
13252;SDS011;6693;54.370;10.132;2023-10-13T01:17:43;8.43;;;1.70;;
13252;SDS011;6693;54.370;10.132;2023-10-13T01:18:45;8.90;;;2.72;;
13252;SDS011;6693;54.370;10.132;2023-10-13T01:19:50;8.32;;;1.58;;
13252;SDS011;6693;54.370;10.132;2023-10-13T01:20:58;6.72;;;2.05;;
13252;SDS011;6693;54.370;10.132;2023-10-13T01:22:02;7.50;;;2.03;;
13252;SDS011;6693;54.370;10.132;2023-10-13T01:23:10;8.50;;;2.10;;
13252;SDS011;6693;54.370;10.132;2023-10-13T01:24:18;8.48;;;2.75;;
13252;SDS011;6693;54.370;10.132;2023-10-13T01:25:24;7.50;;;1.75;;
13252;SDS011;6693;54.370;10.132;2023-10-13T01:26:28;7.45;;;2.22;;
13252;SDS011;6693;54.370;10.132;2023-10-13T01:27:28;8.20;;;1.63;;
13252;SDS011;6693;54.370;10.132;2023-10-13T01:28:32;7.07;;;2.70;;
13252;SDS011;6693;54.370;10.132;2023-10-13T01:29:44;7.25;;;2.50;;
13252;SDS011;6693;54.370;10.132;2023-10-13T01:30:48;10.10;;;2.80;;
13252;SDS011;6693;54.370;10.132;2023-10-13T01:31:50;10.25;;;1.92;;
13252;SDS011;6693;54.370;10.132;2023-10-13T01:32:53;10.98;;;2.10;;
13252;SDS011;6693;54.370;10.132;2023-10-13T01:33:54;7.75;;;2.40;;
13252;SDS011;6693;54.370;10.132;2023-10-13T01:34:58;9.30;;;3.00;;
13252;SDS011;6693;54.370;10.132;2023-10-13T01:36:06;9.15;;;1.90;;
13252;SDS011;6693;54.370;10.132;2023-10-13T01:37:10;8.10;;;2.97;;
13252;SDS011;6693;54.370;10.132;2023-10-13T01:38:14;5.68;;;2.45;;
13252;SDS011;6693;54.370;10.132;2023-10-13T01:39:17;8.13;;;2.85;;
13252;SDS011;6693;54.370;10.132;2023-10-13T01:40:18;7.25;;;2.47;;
13252;SDS011;6693;54.370;10.132;2023-10-13T01:41:21;7.55;;;2.80;;
13252;SDS011;6693;54.370;10.132;2023-10-13T01:42:24;8.32;;;2.40;;
13252;SDS011;6693;54.370;10.132;2023-10-13T01:43:25;7.90;;;3.00;;
13252;SDS011;6693;54.370;10.132;2023-10-13T01:44:26;5.68;;;2.10;;
13252;SDS011;6693;54.370;10.132;2023-10-13T01:45:30;8.00;;;2.55;;
13252;SDS011;6693;54.370;10.132;2023-10-13T01:46:31;10.60;;;2.95;;
13252;SDS011;6693;54.370;10.132;2023-10-13T01:47:32;10.43;;;2.00;;
13252;SDS011;6693;54.370;10.132;2023-10-13T01:48:33;9.77;;;2.85;;
13252;SDS011;6693;54.370;10.132;2023-10-13T01:49:39;7.30;;;2.05;;
13252;SDS011;6693;54.370;10.132;2023-10-13T01:50:43;7.57;;;1.92;;
13252;SDS011;6693;54.370;10.132;2023-10-13T01:51:48;9.55;;;2.45;;
13252;SDS011;6693;54.370;10.132;2023-10-13T01:52:51;7.45;;;2.15;;
13252;SDS011;6693;54.370;10.132;2023-10-13T01:53:58;7.20;;;2.75;;
13252;SDS011;6693;54.370;10.132;2023-10-13T01:54:58;12.00;;;3.28;;
13252;SDS011;6693;54.370;10.132;2023-10-13T01:56:01;6.03;;;1.80;;
13252;SDS011;6693;54.370;10.132;2023-10-13T01:57:05;6.85;;;2.55;;
13252;SDS011;6693;54.370;10.132;2023-10-13T01:58:06;7.32;;;2.30;;
13252;SDS011;6693;54.370;10.132;2023-10-13T01:59:14;11.27;;;2.97;;
13252;SDS011;6693;54.370;10.132;2023-10-13T02:00:18;9.20;;;1.80;;
13252;SDS011;6693;54.370;10.132;2023-10-13T02:01:19;7.40;;;2.47;;
13252;SDS011;6693;54.370;10.132;2023-10-13T02:02:26;9.40;;;2.65;;
13252;SDS011;6693;54.370;10.132;2023-10-13T02:03:31;7.70;;;2.83;;
13252;SDS011;6693;54.370;10.132;2023-10-13T02:04:32;6.32;;;2.75;;
13252;SDS011;6693;54.370;10.132;2023-10-13T02:05:33;8.13;;;2.00;;
13252;SDS011;6693;54.370;10.132;2023-10-13T02:06:36;6.28;;;2.30;;
13252;SDS011;6693;54.370;10.132;2023-10-13T02:07:40;7.97;;;1.67;;
13252;SDS011;6693;54.370;10.132;2023-10-13T02:08:45;8.77;;;2.67;;
13252;SDS011;6693;54.370;10.132;2023-10-13T02:09:50;6.68;;;2.00;;
13252;SDS011;6693;54.370;10.132;2023-10-13T02:10:51;7.65;;;3.00;;
13252;SDS011;6693;54.370;10.132;2023-10-13T02:11:54;6.00;;;1.75;;
13252;SDS011;6693;54.370;10.132;2023-10-13T02:12:56;10.90;;;3.03;;
13252;SDS011;6693;54.370;10.132;2023-10-13T02:13:57;9.57;;;2.35;;
13252;SDS011;6693;54.370;10.132;2023-10-13T02:14:58;7.43;;;2.22;;
13252;SDS011;6693;54.370;10.132;2023-10-13T02:16:04;9.80;;;2.90;;
13252;SDS011;6693;54.370;10.132;2023-10-13T02:17:07;8.63;;;2.25;;
13252;SDS011;6693;54.370;10.132;2023-10-13T02:18:13;8.27;;;2.20;;
13252;SDS011;6693;54.370;10.132;2023-10-13T02:19:21;10.43;;;1.80;;
13252;SDS011;6693;54.370;10.132;2023-10-13T02:20:21;6.18;;;1.60;;
13252;SDS011;6693;54.370;10.132;2023-10-13T02:22:31;7.38;;;1.95;;
13252;SDS011;6693;54.370;10.132;2023-10-13T02:23:32;7.38;;;2.58;;
13252;SDS011;6693;54.370;10.132;2023-10-13T02:24:32;8.68;;;2.55;;
13252;SDS011;6693;54.370;10.132;2023-10-13T02:25:36;8.30;;;2.60;;
13252;SDS011;6693;54.370;10.132;2023-10-13T02:26:43;5.93;;;2.30;;
13252;SDS011;6693;54.370;10.132;2023-10-13T02:27:44;10.73;;;2.88;;
13252;SDS011;6693;54.370;10.132;2023-10-13T02:30:04;5.40;;;1.85;;
13252;SDS011;6693;54.370;10.132;2023-10-13T02:31:05;5.68;;;2.03;;
13252;SDS011;6693;54.370;10.132;2023-10-13T02:32:07;6.47;;;2.40;;
13252;SDS011;6693;54.370;10.132;2023-10-13T02:33:18;9.40;;;1.92;;
13252;SDS011;6693;54.370;10.132;2023-10-13T02:34:21;8.07;;;2.22;;
13252;SDS011;6693;54.370;10.132;2023-10-13T02:35:23;7.88;;;2.38;;
13252;SDS011;6693;54.370;10.132;2023-10-13T02:36:31;7.15;;;2.35;;
13252;SDS011;6693;54.370;10.132;2023-10-13T02:37:36;6.68;;;2.53;;
13252;SDS011;6693;54.370;10.132;2023-10-13T02:38:36;9.90;;;2.60;;
13252;SDS011;6693;54.370;10.132;2023-10-13T02:39:45;9.40;;;2.92;;
13252;SDS011;6693;54.370;10.132;2023-10-13T02:40:49;8.02;;;2.42;;
13252;SDS011;6693;54.370;10.132;2023-10-13T02:41:49;9.70;;;2.50;;
13252;SDS011;6693;54.370;10.132;2023-10-13T02:42:55;7.28;;;2.83;;
13252;SDS011;6693;54.370;10.132;2023-10-13T02:43:56;10.68;;;3.08;;
13252;SDS011;6693;54.370;10.132;2023-10-13T02:44:57;8.50;;;2.03;;
13252;SDS011;6693;54.370;10.132;2023-10-13T02:45:57;8.88;;;3.05;;
13252;SDS011;6693;54.370;10.132;2023-10-13T02:47:01;8.65;;;2.90;;
13252;SDS011;6693;54.370;10.132;2023-10-13T02:48:06;11.25;;;2.55;;
13252;SDS011;6693;54.370;10.132;2023-10-13T02:50:19;9.20;;;2.92;;
13252;SDS011;6693;54.370;10.132;2023-10-13T02:51:24;7.68;;;2.00;;
13252;SDS011;6693;54.370;10.132;2023-10-13T02:52:31;8.55;;;2.22;;
13252;SDS011;6693;54.370;10.132;2023-10-13T02:53:38;10.52;;;2.33;;
13252;SDS011;6693;54.370;10.132;2023-10-13T02:54:38;9.43;;;2.88;;
13252;SDS011;6693;54.370;10.132;2023-10-13T02:55:54;10.75;;;3.13;;
13252;SDS011;6693;54.370;10.132;2023-10-13T02:57:06;11.88;;;2.60;;
13252;SDS011;6693;54.370;10.132;2023-10-13T02:58:07;9.35;;;3.15;;
13252;SDS011;6693;54.370;10.132;2023-10-13T02:59:09;10.75;;;3.00;;
13252;SDS011;6693;54.370;10.132;2023-10-13T03:00:12;8.82;;;2.70;;
13252;SDS011;6693;54.370;10.132;2023-10-13T03:01:16;10.50;;;3.13;;
13252;SDS011;6693;54.370;10.132;2023-10-13T03:02:17;8.00;;;3.00;;
13252;SDS011;6693;54.370;10.132;2023-10-13T03:03:17;11.70;;;2.67;;
13252;SDS011;6693;54.370;10.132;2023-10-13T03:04:22;12.00;;;5.05;;
13252;SDS011;6693;54.370;10.132;2023-10-13T03:05:25;9.40;;;2.58;;
13252;SDS011;6693;54.370;10.132;2023-10-13T03:06:31;10.93;;;3.22;;
13252;SDS011;6693;54.370;10.132;2023-10-13T03:07:40;9.00;;;2.30;;
13252;SDS011;6693;54.370;10.132;2023-10-13T03:08:43;12.98;;;3.78;;
13252;SDS011;6693;54.370;10.132;2023-10-13T03:09:43;9.43;;;2.15;;
13252;SDS011;6693;54.370;10.132;2023-10-13T03:10:50;13.35;;;2.88;;
13252;SDS011;6693;54.370;10.132;2023-10-13T03:11:57;12.20;;;3.50;;
13252;SDS011;6693;54.370;10.132;2023-10-13T03:12:58;11.32;;;3.35;;
13252;SDS011;6693;54.370;10.132;2023-10-13T03:13:59;9.52;;;3.38;;
13252;SDS011;6693;54.370;10.132;2023-10-13T03:15:06;9.95;;;3.72;;
13252;SDS011;6693;54.370;10.132;2023-10-13T03:16:14;11.40;;;3.25;;
13252;SDS011;6693;54.370;10.132;2023-10-13T03:17:16;11.63;;;3.35;;
13252;SDS011;6693;54.370;10.132;2023-10-13T03:18:23;14.95;;;4.25;;
13252;SDS011;6693;54.370;10.132;2023-10-13T03:19:25;8.30;;;2.53;;
13252;SDS011;6693;54.370;10.132;2023-10-13T03:21:39;12.45;;;3.78;;
13252;SDS011;6693;54.370;10.132;2023-10-13T03:22:44;11.80;;;3.35;;
13252;SDS011;6693;54.370;10.132;2023-10-13T03:23:45;12.43;;;4.15;;
13252;SDS011;6693;54.370;10.132;2023-10-13T03:24:47;14.38;;;3.60;;
13252;SDS011;6693;54.370;10.132;2023-10-13T03:25:53;12.38;;;4.13;;
13252;SDS011;6693;54.370;10.132;2023-10-13T03:26:58;14.48;;;4.75;;
13252;SDS011;6693;54.370;10.132;2023-10-13T03:27:59;13.20;;;5.07;;
13252;SDS011;6693;54.370;10.132;2023-10-13T03:29:07;13.27;;;4.82;;
13252;SDS011;6693;54.370;10.132;2023-10-13T03:30:09;12.63;;;4.47;;
13252;SDS011;6693;54.370;10.132;2023-10-13T03:31:13;13.18;;;4.25;;
13252;SDS011;6693;54.370;10.132;2023-10-13T03:32:18;17.00;;;3.90;;
13252;SDS011;6693;54.370;10.132;2023-10-13T03:33:18;15.60;;;4.20;;
13252;SDS011;6693;54.370;10.132;2023-10-13T03:34:26;14.77;;;3.90;;
13252;SDS011;6693;54.370;10.132;2023-10-13T03:35:29;18.73;;;4.63;;
13252;SDS011;6693;54.370;10.132;2023-10-13T03:37:55;16.00;;;4.57;;
13252;SDS011;6693;54.370;10.132;2023-10-13T03:38:58;15.48;;;5.35;;
13252;SDS011;6693;54.370;10.132;2023-10-13T03:39:59;22.83;;;5.70;;
13252;SDS011;6693;54.370;10.132;2023-10-13T03:41:00;14.90;;;5.22;;
13252;SDS011;6693;54.370;10.132;2023-10-13T03:42:21;18.88;;;5.32;;
13252;SDS011;6693;54.370;10.132;2023-10-13T03:43:22;20.88;;;5.55;;
13252;SDS011;6693;54.370;10.132;2023-10-13T03:44:23;19.00;;;5.78;;
13252;SDS011;6693;54.370;10.132;2023-10-13T03:45:30;21.45;;;6.20;;
13252;SDS011;6693;54.370;10.132;2023-10-13T03:46:37;26.00;;;6.47;;
13252;SDS011;6693;54.370;10.132;2023-10-13T03:47:40;22.00;;;5.68;;
13252;SDS011;6693;54.370;10.132;2023-10-13T03:48:45;21.80;;;5.15;;
13252;SDS011;6693;54.370;10.132;2023-10-13T03:49:53;21.50;;;6.80;;
13252;SDS011;6693;54.370;10.132;2023-10-13T03:51:15;25.20;;;6.80;;
13252;SDS011;6693;54.370;10.132;2023-10-13T03:52:16;25.90;;;5.97;;
13252;SDS011;6693;54.370;10.132;2023-10-13T03:53:22;21.88;;;6.13;;
13252;SDS011;6693;54.370;10.132;2023-10-13T03:54:25;19.80;;;5.93;;
13252;SDS011;6693;54.370;10.132;2023-10-13T03:55:30;27.77;;;7.22;;
13252;SDS011;6693;54.370;10.132;2023-10-13T03:56:35;24.65;;;5.85;;
13252;SDS011;6693;54.370;10.132;2023-10-13T03:57:47;21.63;;;5.35;;
13252;SDS011;6693;54.370;10.132;2023-10-13T03:58:50;26.23;;;7.03;;
13252;SDS011;6693;54.370;10.132;2023-10-13T03:59:54;23.33;;;5.65;;
13252;SDS011;6693;54.370;10.132;2023-10-13T04:00:56;25.73;;;5.70;;
13252;SDS011;6693;54.370;10.132;2023-10-13T04:02:00;24.00;;;6.47;;
13252;SDS011;6693;54.370;10.132;2023-10-13T04:03:03;22.00;;;5.38;;
13252;SDS011;6693;54.370;10.132;2023-10-13T04:04:16;25.15;;;6.13;;
13252;SDS011;6693;54.370;10.132;2023-10-13T04:05:34;23.35;;;6.13;;
13252;SDS011;6693;54.370;10.132;2023-10-13T04:06:45;25.73;;;7.70;;
13252;SDS011;6693;54.370;10.132;2023-10-13T04:07:51;19.67;;;5.32;;
13252;SDS011;6693;54.370;10.132;2023-10-13T04:09:13;23.10;;;5.45;;
13252;SDS011;6693;54.370;10.132;2023-10-13T04:10:29;24.02;;;5.60;;
13252;SDS011;6693;54.370;10.132;2023-10-13T04:11:45;21.60;;;5.32;;
13252;SDS011;6693;54.370;10.132;2023-10-13T04:13:18;20.85;;;6.13;;
13252;SDS011;6693;54.370;10.132;2023-10-13T04:14:34;18.08;;;6.25;;
13252;SDS011;6693;54.370;10.132;2023-10-13T04:15:51;23.77;;;5.53;;
13252;SDS011;6693;54.370;10.132;2023-10-13T04:17:15;17.60;;;5.80;;
13252;SDS011;6693;54.370;10.132;2023-10-13T04:18:22;19.73;;;5.38;;
13252;SDS011;6693;54.370;10.132;2023-10-13T04:19:34;18.85;;;5.55;;
13252;SDS011;6693;54.370;10.132;2023-10-13T04:20:57;19.92;;;5.57;;
13252;SDS011;6693;54.370;10.132;2023-10-13T04:22:18;17.40;;;4.55;;
13252;SDS011;6693;54.370;10.132;2023-10-13T04:23:43;18.67;;;6.03;;
13252;SDS011;6693;54.370;10.132;2023-10-13T04:24:58;16.77;;;5.03;;
13252;SDS011;6693;54.370;10.132;2023-10-13T04:26:22;20.08;;;5.18;;
13252;SDS011;6693;54.370;10.132;2023-10-13T04:27:23;16.65;;;4.40;;
13252;SDS011;6693;54.370;10.132;2023-10-13T04:28:56;20.05;;;4.68;;
13252;SDS011;6693;54.370;10.132;2023-10-13T04:29:57;16.58;;;6.47;;
13252;SDS011;6693;54.370;10.132;2023-10-13T04:31:10;18.13;;;5.80;;
13252;SDS011;6693;54.370;10.132;2023-10-13T04:32:25;18.60;;;5.57;;
13252;SDS011;6693;54.370;10.132;2023-10-13T04:33:29;19.73;;;5.47;;
13252;SDS011;6693;54.370;10.132;2023-10-13T04:34:35;21.95;;;6.22;;
13252;SDS011;6693;54.370;10.132;2023-10-13T04:35:39;22.80;;;8.20;;
13252;SDS011;6693;54.370;10.132;2023-10-13T04:36:47;22.75;;;6.63;;
13252;SDS011;6693;54.370;10.132;2023-10-13T04:37:55;24.15;;;6.78;;
13252;SDS011;6693;54.370;10.132;2023-10-13T04:39:01;25.52;;;7.55;;
13252;SDS011;6693;54.370;10.132;2023-10-13T04:40:09;21.30;;;6.45;;
13252;SDS011;6693;54.370;10.132;2023-10-13T04:41:14;17.92;;;5.85;;
13252;SDS011;6693;54.370;10.132;2023-10-13T04:42:22;20.77;;;5.60;;
13252;SDS011;6693;54.370;10.132;2023-10-13T04:43:39;23.00;;;7.18;;
13252;SDS011;6693;54.370;10.132;2023-10-13T04:44:57;20.67;;;6.32;;
13252;SDS011;6693;54.370;10.132;2023-10-13T04:46:16;21.60;;;5.75;;
13252;SDS011;6693;54.370;10.132;2023-10-13T04:47:35;22.73;;;7.70;;
13252;SDS011;6693;54.370;10.132;2023-10-13T04:48:56;18.48;;;4.88;;
13252;SDS011;6693;54.370;10.132;2023-10-13T04:50:02;24.63;;;6.18;;
13252;SDS011;6693;54.370;10.132;2023-10-13T04:51:21;17.98;;;4.93;;
13252;SDS011;6693;54.370;10.132;2023-10-13T04:52:43;20.40;;;6.15;;
13252;SDS011;6693;54.370;10.132;2023-10-13T04:54:01;20.73;;;5.72;;
13252;SDS011;6693;54.370;10.132;2023-10-13T04:55:11;25.38;;;6.60;;
13252;SDS011;6693;54.370;10.132;2023-10-13T04:56:43;20.25;;;5.18;;
13252;SDS011;6693;54.370;10.132;2023-10-13T04:57:59;22.15;;;5.43;;
13252;SDS011;6693;54.370;10.132;2023-10-13T04:59:17;24.45;;;6.82;;
13252;SDS011;6693;54.370;10.132;2023-10-13T05:00:38;17.20;;;5.00;;
13252;SDS011;6693;54.370;10.132;2023-10-13T05:01:54;16.65;;;4.55;;
13252;SDS011;6693;54.370;10.132;2023-10-13T05:03:09;20.52;;;7.03;;
13252;SDS011;6693;54.370;10.132;2023-10-13T05:04:25;18.45;;;6.38;;
13252;SDS011;6693;54.370;10.132;2023-10-13T05:06:01;14.93;;;5.78;;
13252;SDS011;6693;54.370;10.132;2023-10-13T05:07:30;14.95;;;5.00;;
13252;SDS011;6693;54.370;10.132;2023-10-13T05:08:49;20.50;;;6.10;;
13252;SDS011;6693;54.370;10.132;2023-10-13T05:10:05;15.52;;;5.25;;
13252;SDS011;6693;54.370;10.132;2023-10-13T05:11:21;14.52;;;4.82;;
13252;SDS011;6693;54.370;10.132;2023-10-13T05:12:37;20.48;;;8.18;;
13252;SDS011;6693;54.370;10.132;2023-10-13T05:13:53;14.80;;;5.22;;
13252;SDS011;6693;54.370;10.132;2023-10-13T05:15:14;19.40;;;6.28;;
13252;SDS011;6693;54.370;10.132;2023-10-13T05:16:33;12.88;;;3.75;;
13252;SDS011;6693;54.370;10.132;2023-10-13T05:17:48;11.77;;;4.47;;
13252;SDS011;6693;54.370;10.132;2023-10-13T05:19:04;18.90;;;5.47;;
13252;SDS011;6693;54.370;10.132;2023-10-13T05:20:20;17.08;;;5.18;;
13252;SDS011;6693;54.370;10.132;2023-10-13T05:21:38;11.98;;;4.07;;
13252;SDS011;6693;54.370;10.132;2023-10-13T05:22:53;13.50;;;4.38;;
13252;SDS011;6693;54.370;10.132;2023-10-13T05:24:09;16.08;;;5.10;;
13252;SDS011;6693;54.370;10.132;2023-10-13T05:25:24;17.92;;;6.25;;
13252;SDS011;6693;54.370;10.132;2023-10-13T05:26:40;17.92;;;6.32;;
13252;SDS011;6693;54.370;10.132;2023-10-13T05:27:56;14.50;;;5.88;;
13252;SDS011;6693;54.370;10.132;2023-10-13T05:29:12;11.85;;;4.80;;
13252;SDS011;6693;54.370;10.132;2023-10-13T05:30:27;16.02;;;4.93;;
13252;SDS011;6693;54.370;10.132;2023-10-13T05:31:46;15.93;;;5.43;;
13252;SDS011;6693;54.370;10.132;2023-10-13T05:33:01;17.85;;;6.13;;
13252;SDS011;6693;54.370;10.132;2023-10-13T05:34:18;9.73;;;4.32;;
13252;SDS011;6693;54.370;10.132;2023-10-13T05:35:33;19.38;;;5.82;;
13252;SDS011;6693;54.370;10.132;2023-10-13T05:36:49;14.77;;;5.00;;
13252;SDS011;6693;54.370;10.132;2023-10-13T05:38:05;14.55;;;4.65;;
13252;SDS011;6693;54.370;10.132;2023-10-13T05:39:21;16.08;;;5.85;;
13252;SDS011;6693;54.370;10.132;2023-10-13T05:40:37;15.82;;;5.95;;
13252;SDS011;6693;54.370;10.132;2023-10-13T05:41:52;15.57;;;5.93;;
13252;SDS011;6693;54.370;10.132;2023-10-13T05:43:08;16.00;;;5.68;;
13252;SDS011;6693;54.370;10.132;2023-10-13T05:44:24;18.08;;;6.13;;
13252;SDS011;6693;54.370;10.132;2023-10-13T05:45:37;16.27;;;5.57;;
13252;SDS011;6693;54.370;10.132;2023-10-13T05:47:02;17.08;;;5.80;;
13252;SDS011;6693;54.370;10.132;2023-10-13T05:48:19;15.95;;;5.15;;
13252;SDS011;6693;54.370;10.132;2023-10-13T05:49:34;16.55;;;5.70;;
13252;SDS011;6693;54.370;10.132;2023-10-13T05:50:50;15.70;;;5.85;;
13252;SDS011;6693;54.370;10.132;2023-10-13T05:52:17;18.92;;;6.57;;
13252;SDS011;6693;54.370;10.132;2023-10-13T05:53:44;19.55;;;7.40;;
13252;SDS011;6693;54.370;10.132;2023-10-13T05:54:59;18.38;;;6.10;;
13252;SDS011;6693;54.370;10.132;2023-10-13T05:56:15;18.33;;;6.47;;
13252;SDS011;6693;54.370;10.132;2023-10-13T05:57:31;18.98;;;6.85;;
13252;SDS011;6693;54.370;10.132;2023-10-13T05:58:46;19.80;;;6.72;;
13252;SDS011;6693;54.370;10.132;2023-10-13T06:00:02;17.35;;;5.53;;
13252;SDS011;6693;54.370;10.132;2023-10-13T06:01:19;18.17;;;6.10;;
13252;SDS011;6693;54.370;10.132;2023-10-13T06:02:37;19.83;;;7.40;;
13252;SDS011;6693;54.370;10.132;2023-10-13T06:04:04;16.98;;;5.65;;
13252;SDS011;6693;54.370;10.132;2023-10-13T06:05:20;17.63;;;6.53;;
13252;SDS011;6693;54.370;10.132;2023-10-13T06:06:36;19.83;;;6.55;;
13252;SDS011;6693;54.370;10.132;2023-10-13T06:08:07;16.85;;;6.00;;
13252;SDS011;6693;54.370;10.132;2023-10-13T06:09:23;19.05;;;6.07;;
13252;SDS011;6693;54.370;10.132;2023-10-13T06:10:41;18.25;;;6.15;;
13252;SDS011;6693;54.370;10.132;2023-10-13T06:11:57;19.00;;;6.45;;
13252;SDS011;6693;54.370;10.132;2023-10-13T06:13:13;16.92;;;6.10;;
13252;SDS011;6693;54.370;10.132;2023-10-13T06:14:28;12.77;;;4.75;;
13252;SDS011;6693;54.370;10.132;2023-10-13T06:15:44;16.98;;;6.15;;
13252;SDS011;6693;54.370;10.132;2023-10-13T06:17:00;15.63;;;6.13;;
13252;SDS011;6693;54.370;10.132;2023-10-13T06:18:18;16.70;;;6.07;;
13252;SDS011;6693;54.370;10.132;2023-10-13T06:19:34;14.70;;;5.70;;
13252;SDS011;6693;54.370;10.132;2023-10-13T06:20:50;20.90;;;6.55;;
13252;SDS011;6693;54.370;10.132;2023-10-13T06:22:06;17.00;;;6.78;;
13252;SDS011;6693;54.370;10.132;2023-10-13T06:23:22;18.30;;;6.85;;
13252;SDS011;6693;54.370;10.132;2023-10-13T06:24:37;21.00;;;6.75;;
13252;SDS011;6693;54.370;10.132;2023-10-13T06:25:55;18.95;;;6.90;;
13252;SDS011;6693;54.370;10.132;2023-10-13T06:27:11;21.58;;;6.97;;
13252;SDS011;6693;54.370;10.132;2023-10-13T06:28:26;20.45;;;7.55;;
13252;SDS011;6693;54.370;10.132;2023-10-13T06:29:46;21.30;;;7.90;;
13252;SDS011;6693;54.370;10.132;2023-10-13T06:30:53;20.83;;;7.38;;
13252;SDS011;6693;54.370;10.132;2023-10-13T06:31:59;18.65;;;6.60;;
13252;SDS011;6693;54.370;10.132;2023-10-13T06:33:01;20.25;;;8.35;;
13252;SDS011;6693;54.370;10.132;2023-10-13T06:34:07;24.77;;;7.68;;
13252;SDS011;6693;54.370;10.132;2023-10-13T06:35:08;23.38;;;8.65;;
13252;SDS011;6693;54.370;10.132;2023-10-13T06:36:18;27.80;;;8.98;;
13252;SDS011;6693;54.370;10.132;2023-10-13T06:37:19;22.02;;;8.52;;
13252;SDS011;6693;54.370;10.132;2023-10-13T06:38:26;27.02;;;9.90;;
13252;SDS011;6693;54.370;10.132;2023-10-13T06:39:31;23.90;;;7.78;;
13252;SDS011;6693;54.370;10.132;2023-10-13T06:40:44;26.42;;;10.30;;
13252;SDS011;6693;54.370;10.132;2023-10-13T06:41:48;26.55;;;9.45;;
13252;SDS011;6693;54.370;10.132;2023-10-13T06:42:51;26.38;;;9.82;;
13252;SDS011;6693;54.370;10.132;2023-10-13T06:43:53;27.35;;;8.98;;
13252;SDS011;6693;54.370;10.132;2023-10-13T06:45:05;28.92;;;10.43;;
13252;SDS011;6693;54.370;10.132;2023-10-13T06:46:08;23.75;;;8.95;;
13252;SDS011;6693;54.370;10.132;2023-10-13T06:47:15;28.25;;;9.13;;
13252;SDS011;6693;54.370;10.132;2023-10-13T06:48:15;27.70;;;9.73;;
13252;SDS011;6693;54.370;10.132;2023-10-13T06:49:23;30.38;;;10.23;;
13252;SDS011;6693;54.370;10.132;2023-10-13T06:50:23;32.25;;;11.07;;
13252;SDS011;6693;54.370;10.132;2023-10-13T06:51:29;27.75;;;9.90;;
13252;SDS011;6693;54.370;10.132;2023-10-13T06:52:37;32.45;;;10.85;;
13252;SDS011;6693;54.370;10.132;2023-10-13T06:53:42;35.03;;;12.43;;
13252;SDS011;6693;54.370;10.132;2023-10-13T06:54:46;27.10;;;9.00;;